Time;durP1;ratioP1;P1;durP2;ratioP2;P2;SDS_P1;SDS_P2;PMS_P1;PMS_P2;Temp;Humidity;BMP_temperature;BMP_pressure;BME280_temperature;BME280_humidity;BME280_pressure;Samples;Min_cycle;Max_cycle;Signal;HPM_P1;HPM_P2
2020/10/21 00:01:00;;;;;;;8.150001;6.000001;;;;;;;6.42;73.1123;94880.16;;;;
2020/10/21 00:02:00;;;;;;;8.150001;6.000001;;;;;;;6.42;73.1123;94880.16;;;;
2020/10/21 00:03:01;;;;;;;8.150001;6.000001;;;;;;;6.42;73.1123;94880.16;;;;
2020/10/21 00:04:01;;;;;;;8.150001;6.000001;;;;;;;6.42;73.1123;94880.16;;;;
2020/10/21 00:05:03;;;;;;;8.150001;6.000001;;;;;;;6.42;73.1123;94880.16;;;;
2020/10/21 00:06:04;;;;;;;8.150001;6.000001;;;;;;;6.42;73.1123;94880.16;;;;
2020/10/21 00:07:06;;;;;;;8.150001;6.000001;;;;;;;6.42;73.1123;94880.16;;;;
2020/10/21 00:08:06;;;;;;;8.150001;6.000001;;;;;;;6.42;73.1123;94880.16;;;;
2020/10/21 00:09:07;;;;;;;12.4;5.950001;;;;;;;6.32;73.6582;94868.08;;;;
2020/10/21 00:10:07;;;;;;;12.4;5.950001;;;;;;;6.32;73.6582;94868.08;;;;
2020/10/21 00:11:08;;;;;;;12.4;5.950001;;;;;;;6.32;73.6582;94868.08;;;;
2020/10/21 00:12:11;;;;;;;12.4;5.950001;;;;;;;6.32;73.6582;94868.08;;;;
2020/10/21 00:13:11;;;;;;;12.4;5.950001;;;;;;;6.32;73.6582;94868.08;;;;
2020/10/21 00:14:12;;;;;;;12.4;5.950001;;;;;;;6.32;73.6582;94868.08;;;;
2020/10/21 00:15:12;;;;;;;12.4;5.950001;;;;;;;6.32;73.6582;94868.08;;;;
2020/10/21 00:16:13;;;;;;;12.4;5.950001;;;;;;;6.32;73.6582;94868.08;;;;
2020/10/21 00:17:14;;;;;;;12.4;5.950001;;;;;;;6.32;73.6582;94868.08;;;;
2020/10/21 00:18:15;;;;;;;12.4;5.950001;;;;;;;6.32;73.6582;94868.08;;;;
2020/10/21 00:19:16;;;;;;;8.2;5.699999;;;;;;;6.16;73.98047;94849.97;;;;
2020/10/21 00:20:16;;;;;;;8.2;5.699999;;;;;;;6.16;73.98047;94849.97;;;;
2020/10/21 00:21:17;;;;;;;8.2;5.699999;;;;;;;6.16;73.98047;94849.97;;;;
2020/10/21 00:22:18;;;;;;;8.2;5.699999;;;;;;;6.16;73.98047;94849.97;;;;
2020/10/21 00:23:18;;;;;;;8.2;5.699999;;;;;;;6.16;73.98047;94849.97;;;;
2020/10/21 00:24:18;;;;;;;8.2;5.699999;;;;;;;6.16;73.98047;94849.97;;;;
2020/10/21 00:25:19;;;;;;;8.2;5.699999;;;;;;;6.16;73.98047;94849.97;;;;
2020/10/21 00:26:19;;;;;;;8.2;5.699999;;;;;;;6.16;73.98047;94849.97;;;;
2020/10/21 00:27:20;;;;;;;8.2;5.699999;;;;;;;6.16;73.98047;94849.97;;;;
2020/10/21 00:28:21;;;;;;;8.2;5.699999;;;;;;;6.16;73.98047;94849.97;;;;
2020/10/21 00:29:21;;;;;;;8.2;5.699999;;;;;;;6.16;73.98047;94849.97;;;;
2020/10/21 00:30:22;;;;;;;7.45;5.349999;;;;;;;6.09;74.24512;94832.62;;;;
2020/10/21 00:31:22;;;;;;;7.45;5.349999;;;;;;;6.09;74.24512;94832.62;;;;
2020/10/21 00:32:23;;;;;;;7.45;5.349999;;;;;;;6.09;74.24512;94832.62;;;;
2020/10/21 00:33:23;;;;;;;7.45;5.349999;;;;;;;6.09;74.24512;94832.62;;;;
2020/10/21 00:34:24;;;;;;;7.45;5.349999;;;;;;;6.09;74.24512;94832.62;;;;
2020/10/21 00:35:24;;;;;;;7.45;5.349999;;;;;;;6.09;74.24512;94832.62;;;;
2020/10/21 00:36:25;;;;;;;7.45;5.349999;;;;;;;6.09;74.24512;94832.62;;;;
2020/10/21 00:37:25;;;;;;;7.45;5.349999;;;;;;;6.09;74.24512;94832.62;;;;
2020/10/21 00:38:26;;;;;;;7.45;5.349999;;;;;;;6.09;74.24512;94832.62;;;;
2020/10/21 00:39:27;;;;;;;7.45;5.349999;;;;;;;6.09;74.24512;94832.62;;;;
2020/10/21 00:40:27;;;;;;;6.4;5.15;;;;;;;5.88;74.50586;94819.61;;;;
2020/10/21 00:41:28;;;;;;;6.4;5.15;;;;;;;5.88;74.50586;94819.61;;;;
2020/10/21 00:42:28;;;;;;;6.4;5.15;;;;;;;5.88;74.50586;94819.61;;;;
2020/10/21 00:43:29;;;;;;;6.4;5.15;;;;;;;5.88;74.50586;94819.61;;;;
2020/10/21 00:44:29;;;;;;;6.4;5.15;;;;;;;5.88;74.50586;94819.61;;;;
2020/10/21 00:45:30;;;;;;;6.4;5.15;;;;;;;5.88;74.50586;94819.61;;;;
2020/10/21 00:46:30;;;;;;;6.4;5.15;;;;;;;5.88;74.50586;94819.61;;;;
2020/10/21 00:47:37;;;;;;;6.4;5.15;;;;;;;5.88;74.50586;94819.61;;;;
2020/10/21 00:48:38;;;;;;;6.4;5.15;;;;;;;5.88;74.50586;94819.61;;;;
2020/10/21 00:49:40;;;;;;;6.4;5.15;;;;;;;5.88;74.50586;94819.61;;;;
2020/10/21 00:50:41;;;;;;;6.4;5.15;;;;;;;5.88;74.50586;94819.61;;;;
2020/10/21 00:51:41;;;;;;;11.45;6.299999;;;;;;;5.7;74.83398;94810.52;;;;
2020/10/21 00:52:42;;;;;;;11.45;6.299999;;;;;;;5.7;74.83398;94810.52;;;;
2020/10/21 00:53:43;;;;;;;11.45;6.299999;;;;;;;5.7;74.83398;94810.52;;;;
2020/10/21 00:54:44;;;;;;;11.45;6.299999;;;;;;;5.7;74.83398;94810.52;;;;
2020/10/21 00:55:45;;;;;;;11.45;6.299999;;;;;;;5.7;74.83398;94810.52;;;;
2020/10/21 00:56:46;;;;;;;11.45;6.299999;;;;;;;5.7;74.83398;94810.52;;;;
2020/10/21 00:57:47;;;;;;;11.45;6.299999;;;;;;;5.7;74.83398;94810.52;;;;
2020/10/21 00:58:47;;;;;;;11.45;6.299999;;;;;;;5.7;74.83398;94810.52;;;;
2020/10/21 00:59:48;;;;;;;11.45;6.299999;;;;;;;5.7;74.83398;94810.52;;;;
2020/10/21 01:00:56;;;;;;;11.45;6.299999;;;;;;;5.7;74.83398;94810.52;;;;
2020/10/21 01:01:57;;;;;;;13.5;6.700001;;;;;;;5.52;75.1084;94804.29;;;;
2020/10/21 01:02:57;;;;;;;13.5;6.700001;;;;;;;5.52;75.1084;94804.29;;;;
2020/10/21 01:03:58;;;;;;;13.5;6.700001;;;;;;;5.52;75.1084;94804.29;;;;
2020/10/21 01:04:59;;;;;;;13.5;6.700001;;;;;;;5.52;75.1084;94804.29;;;;
2020/10/21 01:05:59;;;;;;;13.5;6.700001;;;;;;;5.52;75.1084;94804.29;;;;
2020/10/21 01:07:08;;;;;;;13.5;6.700001;;;;;;;5.52;75.1084;94804.29;;;;
2020/10/21 01:08:08;;;;;;;13.5;6.700001;;;;;;;5.52;75.1084;94804.29;;;;
2020/10/21 01:09:09;;;;;;;13.5;6.700001;;;;;;;5.52;75.1084;94804.29;;;;
2020/10/21 01:10:09;;;;;;;13.5;6.700001;;;;;;;5.52;75.1084;94804.29;;;;
2020/10/21 01:11:10;;;;;;;13.5;6.700001;;;;;;;5.52;75.1084;94804.29;;;;
2020/10/21 01:12:11;;;;;;;13.5;6.700001;;;;;;;5.52;75.1084;94804.29;;;;
2020/10/21 01:13:12;;;;;;;15.75;7.9;;;;;;;5.5;75.41211;94779.58;;;;
2020/10/21 01:14:13;;;;;;;15.75;7.9;;;;;;;5.5;75.41211;94779.58;;;;
2020/10/21 01:15:15;;;;;;;15.75;7.9;;;;;;;5.5;75.41211;94779.58;;;;
2020/10/21 01:16:16;;;;;;;15.75;7.9;;;;;;;5.5;75.41211;94779.58;;;;
2020/10/21 01:17:17;;;;;;;15.75;7.9;;;;;;;5.5;75.41211;94779.58;;;;
2020/10/21 01:18:18;;;;;;;15.75;7.9;;;;;;;5.5;75.41211;94779.58;;;;
2020/10/21 01:19:18;;;;;;;15.75;7.9;;;;;;;5.5;75.41211;94779.58;;;;
2020/10/21 01:20:19;;;;;;;15.75;7.9;;;;;;;5.5;75.41211;94779.58;;;;
2020/10/21 01:21:19;;;;;;;15.75;7.9;;;;;;;5.5;75.41211;94779.58;;;;
2020/10/21 01:22:24;;;;;;;15.75;7.9;;;;;;;5.5;75.41211;94779.58;;;;
2020/10/21 01:23:24;;;;;;;15.05;7.75;;;;;;;5.44;75.5166;94769.73;;;;
2020/10/21 01:24:25;;;;;;;15.05;7.75;;;;;;;5.44;75.5166;94769.73;;;;
2020/10/21 01:25:25;;;;;;;15.05;7.75;;;;;;;5.44;75.5166;94769.73;;;;
2020/10/21 01:26:26;;;;;;;15.05;7.75;;;;;;;5.44;75.5166;94769.73;;;;
2020/10/21 01:27:30;;;;;;;15.05;7.75;;;;;;;5.44;75.5166;94769.73;;;;
2020/10/21 01:28:30;;;;;;;15.05;7.75;;;;;;;5.44;75.5166;94769.73;;;;
2020/10/21 01:29:31;;;;;;;15.05;7.75;;;;;;;5.44;75.5166;94769.73;;;;
2020/10/21 01:30:31;;;;;;;15.05;7.75;;;;;;;5.44;75.5166;94769.73;;;;
2020/10/21 01:31:32;;;;;;;15.05;7.75;;;;;;;5.44;75.5166;94769.73;;;;
2020/10/21 01:32:33;;;;;;;15.05;7.75;;;;;;;5.44;75.5166;94769.73;;;;
2020/10/21 01:33:34;;;;;;;15.05;7.75;;;;;;;5.44;75.5166;94769.73;;;;
2020/10/21 01:34:35;;;;;;;15.55;7.45;;;;;;;5.46;75.81738;94751.09;;;;
2020/10/21 01:35:35;;;;;;;15.55;7.45;;;;;;;5.46;75.81738;94751.09;;;;
2020/10/21 01:36:36;;;;;;;15.55;7.45;;;;;;;5.46;75.81738;94751.09;;;;
2020/10/21 01:37:36;;;;;;;15.55;7.45;;;;;;;5.46;75.81738;94751.09;;;;
2020/10/21 01:38:37;;;;;;;15.55;7.45;;;;;;;5.46;75.81738;94751.09;;;;
2020/10/21 01:39:38;;;;;;;15.55;7.45;;;;;;;5.46;75.81738;94751.09;;;;
2020/10/21 01:40:38;;;;;;;15.55;7.45;;;;;;;5.46;75.81738;94751.09;;;;
2020/10/21 01:41:42;;;;;;;15.55;7.45;;;;;;;5.46;75.81738;94751.09;;;;
2020/10/21 01:42:43;;;;;;;15.55;7.45;;;;;;;5.46;75.81738;94751.09;;;;
2020/10/21 01:43:43;;;;;;;15.55;7.45;;;;;;;5.46;75.81738;94751.09;;;;
2020/10/21 01:44:44;;;;;;;12.2;6.75;;;;;;;5.47;75.88281;94730.89;;;;
2020/10/21 01:45:44;;;;;;;12.2;6.75;;;;;;;5.47;75.88281;94730.89;;;;
2020/10/21 01:46:45;;;;;;;12.2;6.75;;;;;;;5.47;75.88281;94730.89;;;;
2020/10/21 01:47:45;;;;;;;12.2;6.75;;;;;;;5.47;75.88281;94730.89;;;;
2020/10/21 01:48:46;;;;;;;12.2;6.75;;;;;;;5.47;75.88281;94730.89;;;;
2020/10/21 01:49:47;;;;;;;12.2;6.75;;;;;;;5.47;75.88281;94730.89;;;;
2020/10/21 01:50:48;;;;;;;12.2;6.75;;;;;;;5.47;75.88281;94730.89;;;;
2020/10/21 01:51:48;;;;;;;12.2;6.75;;;;;;;5.47;75.88281;94730.89;;;;
2020/10/21 01:52:49;;;;;;;12.2;6.75;;;;;;;5.47;75.88281;94730.89;;;;
2020/10/21 01:53:49;;;;;;;12.2;6.75;;;;;;;5.47;75.88281;94730.89;;;;
2020/10/21 01:54:50;;;;;;;12.2;6.75;;;;;;;5.47;75.88281;94730.89;;;;
2020/10/21 01:55:50;;;;;;;7.75;4.95;;;;;;;5.52;75.97559;94720.37;;;;
2020/10/21 01:56:51;;;;;;;7.75;4.95;;;;;;;5.52;75.97559;94720.37;;;;
2020/10/21 01:57:52;;;;;;;7.75;4.95;;;;;;;5.52;75.97559;94720.37;;;;
2020/10/21 01:58:52;;;;;;;7.75;4.95;;;;;;;5.52;75.97559;94720.37;;;;
2020/10/21 01:59:53;;;;;;;7.75;4.95;;;;;;;5.52;75.97559;94720.37;;;;
2020/10/21 02:00:53;;;;;;;7.75;4.95;;;;;;;5.52;75.97559;94720.37;;;;
2020/10/21 02:01:54;;;;;;;7.75;4.95;;;;;;;5.52;75.97559;94720.37;;;;
2020/10/21 02:02:54;;;;;;;7.75;4.95;;;;;;;5.52;75.97559;94720.37;;;;
2020/10/21 02:03:55;;;;;;;7.75;4.95;;;;;;;5.52;75.97559;94720.37;;;;
2020/10/21 02:04:55;;;;;;;7.75;4.95;;;;;;;5.52;75.97559;94720.37;;;;
2020/10/21 02:05:55;;;;;;;6.2;4.5;;;;;;;5.48;76.38086;94712.87;;;;
2020/10/21 02:06:56;;;;;;;6.2;4.5;;;;;;;5.48;76.38086;94712.87;;;;
2020/10/21 02:07:56;;;;;;;6.2;4.5;;;;;;;5.48;76.38086;94712.87;;;;
2020/10/21 02:08:57;;;;;;;6.2;4.5;;;;;;;5.48;76.38086;94712.87;;;;
2020/10/21 02:09:57;;;;;;;6.2;4.5;;;;;;;5.48;76.38086;94712.87;;;;
2020/10/21 02:10:58;;;;;;;6.2;4.5;;;;;;;5.48;76.38086;94712.87;;;;
2020/10/21 02:11:59;;;;;;;6.2;4.5;;;;;;;5.48;76.38086;94712.87;;;;
2020/10/21 02:12:59;;;;;;;6.2;4.5;;;;;;;5.48;76.38086;94712.87;;;;
2020/10/21 02:14:00;;;;;;;6.2;4.5;;;;;;;5.48;76.38086;94712.87;;;;
2020/10/21 02:15:01;;;;;;;6.2;4.5;;;;;;;5.48;76.38086;94712.87;;;;
2020/10/21 02:16:02;;;;;;;6.2;4.5;;;;;;;5.48;76.38086;94712.87;;;;
2020/10/21 02:17:03;;;;;;;6.5;4.55;;;;;;;5.59;76.64258;94692.6;;;;
2020/10/21 02:18:03;;;;;;;6.5;4.55;;;;;;;5.59;76.64258;94692.6;;;;
2020/10/21 02:19:04;;;;;;;6.5;4.55;;;;;;;5.59;76.64258;94692.6;;;;
2020/10/21 02:20:04;;;;;;;6.5;4.55;;;;;;;5.59;76.64258;94692.6;;;;
2020/10/21 02:21:05;;;;;;;6.5;4.55;;;;;;;5.59;76.64258;94692.6;;;;
2020/10/21 02:22:05;;;;;;;6.5;4.55;;;;;;;5.59;76.64258;94692.6;;;;
2020/10/21 02:23:06;;;;;;;6.5;4.55;;;;;;;5.59;76.64258;94692.6;;;;
2020/10/21 02:24:07;;;;;;;6.5;4.55;;;;;;;5.59;76.64258;94692.6;;;;
2020/10/21 02:25:07;;;;;;;6.5;4.55;;;;;;;5.59;76.64258;94692.6;;;;
2020/10/21 02:26:09;;;;;;;6.5;4.55;;;;;;;5.59;76.64258;94692.6;;;;
2020/10/21 02:27:09;;;;;;;6.1;4.4;;;;;;;5.59;76.69629;94687.15;;;;
2020/10/21 02:28:10;;;;;;;6.1;4.4;;;;;;;5.59;76.69629;94687.15;;;;
2020/10/21 02:29:10;;;;;;;6.1;4.4;;;;;;;5.59;76.69629;94687.15;;;;
2020/10/21 02:30:11;;;;;;;6.1;4.4;;;;;;;5.59;76.69629;94687.15;;;;
2020/10/21 02:31:11;;;;;;;6.1;4.4;;;;;;;5.59;76.69629;94687.15;;;;
2020/10/21 02:32:12;;;;;;;6.1;4.4;;;;;;;5.59;76.69629;94687.15;;;;
2020/10/21 02:33:12;;;;;;;6.1;4.4;;;;;;;5.59;76.69629;94687.15;;;;
2020/10/21 02:34:13;;;;;;;6.1;4.4;;;;;;;5.59;76.69629;94687.15;;;;
2020/10/21 02:35:13;;;;;;;6.1;4.4;;;;;;;5.59;76.69629;94687.15;;;;
2020/10/21 02:36:14;;;;;;;6.1;4.4;;;;;;;5.59;76.69629;94687.15;;;;
2020/10/21 02:37:15;;;;;;;6.1;4.4;;;;;;;5.59;76.69629;94687.15;;;;
2020/10/21 02:38:16;;;;;;;5.4;4.15;;;;;;;5.66;76.90918;94672.34;;;;
2020/10/21 02:39:17;;;;;;;5.4;4.15;;;;;;;5.66;76.90918;94672.34;;;;
2020/10/21 02:40:17;;;;;;;5.4;4.15;;;;;;;5.66;76.90918;94672.34;;;;
2020/10/21 02:41:19;;;;;;;5.4;4.15;;;;;;;5.66;76.90918;94672.34;;;;
2020/10/21 02:42:20;;;;;;;5.4;4.15;;;;;;;5.66;76.90918;94672.34;;;;
2020/10/21 02:43:20;;;;;;;5.4;4.15;;;;;;;5.66;76.90918;94672.34;;;;
2020/10/21 02:44:21;;;;;;;5.4;4.15;;;;;;;5.66;76.90918;94672.34;;;;
2020/10/21 02:45:21;;;;;;;5.4;4.15;;;;;;;5.66;76.90918;94672.34;;;;
2020/10/21 02:46:22;;;;;;;5.4;4.15;;;;;;;5.66;76.90918;94672.34;;;;
2020/10/21 02:47:23;;;;;;;5.4;4.15;;;;;;;5.66;76.90918;94672.34;;;;
2020/10/21 02:48:23;;;;;;;4.849999;3.95;;;;;;;5.63;76.93555;94654.05;;;;
2020/10/21 02:49:24;;;;;;;4.849999;3.95;;;;;;;5.63;76.93555;94654.05;;;;
2020/10/21 02:50:24;;;;;;;4.849999;3.95;;;;;;;5.63;76.93555;94654.05;;;;
2020/10/21 02:51:25;;;;;;;4.849999;3.95;;;;;;;5.63;76.93555;94654.05;;;;
2020/10/21 02:52:25;;;;;;;4.849999;3.95;;;;;;;5.63;76.93555;94654.05;;;;
2020/10/21 02:53:26;;;;;;;4.849999;3.95;;;;;;;5.63;76.93555;94654.05;;;;
2020/10/21 02:54:26;;;;;;;4.849999;3.95;;;;;;;5.63;76.93555;94654.05;;;;
2020/10/21 02:55:27;;;;;;;4.849999;3.95;;;;;;;5.63;76.93555;94654.05;;;;
2020/10/21 02:56:27;;;;;;;4.849999;3.95;;;;;;;5.63;76.93555;94654.05;;;;
2020/10/21 02:57:28;;;;;;;4.849999;3.95;;;;;;;5.63;76.93555;94654.05;;;;
2020/10/21 02:58:28;;;;;;;4.849999;3.95;;;;;;;5.63;76.93555;94654.05;;;;
2020/10/21 02:59:29;;;;;;;5.699999;3.9;;;;;;;5.68;77.25098;94646.17;;;;
2020/10/21 03:00:30;;;;;;;5.699999;3.9;;;;;;;5.68;77.25098;94646.17;;;;
2020/10/21 03:01:30;;;;;;;5.699999;3.9;;;;;;;5.68;77.25098;94646.17;;;;
2020/10/21 03:02:31;;;;;;;5.699999;3.9;;;;;;;5.68;77.25098;94646.17;;;;
2020/10/21 03:03:31;;;;;;;5.699999;3.9;;;;;;;5.68;77.25098;94646.17;;;;
2020/10/21 03:04:32;;;;;;;5.699999;3.9;;;;;;;5.68;77.25098;94646.17;;;;
2020/10/21 03:05:32;;;;;;;5.699999;3.9;;;;;;;5.68;77.25098;94646.17;;;;
2020/10/21 03:06:33;;;;;;;5.699999;3.9;;;;;;;5.68;77.25098;94646.17;;;;
2020/10/21 03:07:33;;;;;;;5.699999;3.9;;;;;;;5.68;77.25098;94646.17;;;;
2020/10/21 03:08:34;;;;;;;5.699999;3.9;;;;;;;5.68;77.25098;94646.17;;;;
2020/10/21 03:09:34;;;;;;;5.699999;3.9;;;;;;;5.68;77.25098;94646.17;;;;
2020/10/21 03:10:35;;;;;;;6.1;4.249999;;;;;;;5.64;77.31836;94648.99;;;;
2020/10/21 03:11:36;;;;;;;6.1;4.249999;;;;;;;5.64;77.31836;94648.99;;;;
2020/10/21 03:12:36;;;;;;;6.1;4.249999;;;;;;;5.64;77.31836;94648.99;;;;
2020/10/21 03:13:39;;;;;;;6.1;4.249999;;;;;;;5.64;77.31836;94648.99;;;;
2020/10/21 03:14:40;;;;;;;6.1;4.249999;;;;;;;5.64;77.31836;94648.99;;;;
2020/10/21 03:15:40;;;;;;;6.1;4.249999;;;;;;;5.64;77.31836;94648.99;;;;
2020/10/21 03:16:40;;;;;;;6.1;4.249999;;;;;;;5.64;77.31836;94648.99;;;;
2020/10/21 03:17:43;;;;;;;6.1;4.249999;;;;;;;5.64;77.31836;94648.99;;;;
2020/10/21 03:18:43;;;;;;;6.1;4.249999;;;;;;;5.64;77.31836;94648.99;;;;
2020/10/21 03:19:44;;;;;;;6.1;4.249999;;;;;;;5.64;77.31836;94648.99;;;;
2020/10/21 03:20:44;;;;;;;5.050001;3.75;;;;;;;5.6;77.48926;94651.39;;;;
2020/10/21 03:21:45;;;;;;;5.050001;3.75;;;;;;;5.6;77.48926;94651.39;;;;
2020/10/21 03:22:45;;;;;;;5.050001;3.75;;;;;;;5.6;77.48926;94651.39;;;;
2020/10/21 03:23:46;;;;;;;5.050001;3.75;;;;;;;5.6;77.48926;94651.39;;;;
2020/10/21 03:24:47;;;;;;;5.050001;3.75;;;;;;;5.6;77.48926;94651.39;;;;
2020/10/21 03:25:48;;;;;;;5.050001;3.75;;;;;;;5.6;77.48926;94651.39;;;;
2020/10/21 03:26:49;;;;;;;5.050001;3.75;;;;;;;5.6;77.48926;94651.39;;;;
2020/10/21 03:27:49;;;;;;;5.050001;3.75;;;;;;;5.6;77.48926;94651.39;;;;
2020/10/21 03:28:50;;;;;;;5.050001;3.75;;;;;;;5.6;77.48926;94651.39;;;;
2020/10/21 03:29:50;;;;;;;5.050001;3.75;;;;;;;5.6;77.48926;94651.39;;;;
2020/10/21 03:30:51;;;;;;;5.050001;3.75;;;;;;;5.6;77.48926;94651.39;;;;
2020/10/21 03:31:51;;;;;;;5.5;3.95;;;;;;;5.48;77.78613;94648.21;;;;
2020/10/21 03:32:52;;;;;;;5.5;3.95;;;;;;;5.48;77.78613;94648.21;;;;
2020/10/21 03:33:53;;;;;;;5.5;3.95;;;;;;;5.48;77.78613;94648.21;;;;
2020/10/21 03:34:53;;;;;;;5.5;3.95;;;;;;;5.48;77.78613;94648.21;;;;
2020/10/21 03:35:54;;;;;;;5.5;3.95;;;;;;;5.48;77.78613;94648.21;;;;
2020/10/21 03:36:55;;;;;;;5.5;3.95;;;;;;;5.48;77.78613;94648.21;;;;
2020/10/21 03:37:55;;;;;;;5.5;3.95;;;;;;;5.48;77.78613;94648.21;;;;
2020/10/21 03:38:56;;;;;;;5.5;3.95;;;;;;;5.48;77.78613;94648.21;;;;
2020/10/21 03:39:57;;;;;;;5.5;3.95;;;;;;;5.48;77.78613;94648.21;;;;
2020/10/21 03:40:57;;;;;;;5.5;3.95;;;;;;;5.48;77.78613;94648.21;;;;
2020/10/21 03:41:59;;;;;;;4.950001;4.05;;;;;;;5.49;77.89355;94652.51;;;;
2020/10/21 03:43:10;;;;;;;4.950001;4.05;;;;;;;5.49;77.89355;94652.51;;;;
2020/10/21 03:44:11;;;;;;;4.950001;4.05;;;;;;;5.49;77.89355;94652.51;;;;
2020/10/21 03:45:16;;;;;;;4.950001;4.05;;;;;;;5.49;77.89355;94652.51;;;;
2020/10/21 03:46:19;;;;;;;4.950001;4.05;;;;;;;5.49;77.89355;94652.51;;;;
2020/10/21 03:47:28;;;;;;;4.950001;4.05;;;;;;;5.49;77.89355;94652.51;;;;
2020/10/21 03:48:34;;;;;;;4.950001;4.05;;;;;;;5.49;77.89355;94652.51;;;;
2020/10/21 03:49:36;;;;;;;4.950001;4.05;;;;;;;5.49;77.89355;94652.51;;;;
2020/10/21 03:50:40;;;;;;;4.950001;4.05;;;;;;;5.49;77.89355;94652.51;;;;
2020/10/21 03:51:45;;;;;;;4.950001;4.05;;;;;;;5.49;77.89355;94652.51;;;;
2020/10/21 03:52:52;;;;;;;5.299999;4.3;;;;;;;5.43;77.97656;94643.63;;;;
2020/10/21 03:54:08;;;;;;;5.299999;4.3;;;;;;;5.43;77.97656;94643.63;;;;
2020/10/21 03:55:19;;;;;;;5.299999;4.3;;;;;;;5.43;77.97656;94643.63;;;;
2020/10/21 03:56:28;;;;;;;5.299999;4.3;;;;;;;5.43;77.97656;94643.63;;;;
2020/10/21 03:57:34;;;;;;;5.299999;4.3;;;;;;;5.43;77.97656;94643.63;;;;
2020/10/21 03:58:42;;;;;;;5.299999;4.3;;;;;;;5.43;77.97656;94643.63;;;;
2020/10/21 04:00:27;;;;;;;5.299999;4.3;;;;;;;5.43;77.97656;94643.63;;;;
2020/10/21 04:01:37;;;;;;;5.299999;4.3;;;;;;;5.43;77.97656;94643.63;;;;
2020/10/21 04:02:45;;;;;;;5.299999;4.3;;;;;;;5.43;77.97656;94643.63;;;;
2020/10/21 04:04:02;;;;;;;6.4;4.2;;;;;;;5.36;78.20898;94650.78;;;;
2020/10/21 04:05:16;;;;;;;6.4;4.2;;;;;;;5.36;78.20898;94650.78;;;;
2020/10/21 04:06:22;;;;;;;6.4;4.2;;;;;;;5.36;78.20898;94650.78;;;;
2020/10/21 04:07:38;;;;;;;6.4;4.2;;;;;;;5.36;78.20898;94650.78;;;;
2020/10/21 04:08:48;;;;;;;6.4;4.2;;;;;;;5.36;78.20898;94650.78;;;;
2020/10/21 04:09:48;;;;;;;6.4;4.2;;;;;;;5.36;78.20898;94650.78;;;;
2020/10/21 04:10:49;;;;;;;6.4;4.2;;;;;;;5.36;78.20898;94650.78;;;;
2020/10/21 04:11:49;;;;;;;6.4;4.2;;;;;;;5.36;78.20898;94650.78;;;;
2020/10/21 04:12:50;;;;;;;6.4;4.2;;;;;;;5.36;78.20898;94650.78;;;;
2020/10/21 04:13:51;;;;;;;6.250001;4.149999;;;;;;;5.2;78.41113;94647.86;;;;
2020/10/21 04:14:51;;;;;;;6.250001;4.149999;;;;;;;5.2;78.41113;94647.86;;;;
2020/10/21 04:16:02;;;;;;;6.250001;4.149999;;;;;;;5.2;78.41113;94647.86;;;;
2020/10/21 04:17:02;;;;;;;6.250001;4.149999;;;;;;;5.2;78.41113;94647.86;;;;
2020/10/21 04:18:06;;;;;;;6.250001;4.149999;;;;;;;5.2;78.41113;94647.86;;;;
2020/10/21 04:19:11;;;;;;;6.250001;4.149999;;;;;;;5.2;78.41113;94647.86;;;;
2020/10/21 04:20:14;;;;;;;6.250001;4.149999;;;;;;;5.2;78.41113;94647.86;;;;
2020/10/21 04:21:19;;;;;;;6.250001;4.149999;;;;;;;5.2;78.41113;94647.86;;;;
2020/10/21 04:22:23;;;;;;;6.250001;4.149999;;;;;;;5.2;78.41113;94647.86;;;;
2020/10/21 04:23:27;;;;;;;6.250001;4.149999;;;;;;;5.2;78.41113;94647.86;;;;
2020/10/21 04:24:28;;;;;;;6.2;4.55;;;;;;;5.15;78.66406;94643.66;;;;
2020/10/21 04:25:28;;;;;;;6.2;4.55;;;;;;;5.15;78.66406;94643.66;;;;
2020/10/21 04:26:29;;;;;;;6.2;4.55;;;;;;;5.15;78.66406;94643.66;;;;
2020/10/21 04:27:30;;;;;;;6.2;4.55;;;;;;;5.15;78.66406;94643.66;;;;
2020/10/21 04:28:37;;;;;;;6.2;4.55;;;;;;;5.15;78.66406;94643.66;;;;
2020/10/21 04:29:38;;;;;;;6.2;4.55;;;;;;;5.15;78.66406;94643.66;;;;
2020/10/21 04:30:38;;;;;;;6.2;4.55;;;;;;;5.15;78.66406;94643.66;;;;
2020/10/21 04:31:38;;;;;;;6.2;4.55;;;;;;;5.15;78.66406;94643.66;;;;
2020/10/21 04:32:40;;;;;;;6.2;4.55;;;;;;;5.15;78.66406;94643.66;;;;
2020/10/21 04:33:53;;;;;;;6.2;4.55;;;;;;;5.15;78.66406;94643.66;;;;
2020/10/21 04:34:53;;;;;;;6.2;4.55;;;;;;;5.15;78.66406;94643.66;;;;
2020/10/21 04:35:54;;;;;;;5.8;4.699999;;;;;;;5.1;78.89844;94671.59;;;;
2020/10/21 04:36:58;;;;;;;5.8;4.699999;;;;;;;5.1;78.89844;94671.59;;;;
2020/10/21 04:38:00;;;;;;;5.8;4.699999;;;;;;;5.1;78.89844;94671.59;;;;
2020/10/21 04:39:08;;;;;;;5.8;4.699999;;;;;;;5.1;78.89844;94671.59;;;;
2020/10/21 04:40:13;;;;;;;5.8;4.699999;;;;;;;5.1;78.89844;94671.59;;;;
2020/10/21 04:41:14;;;;;;;5.8;4.699999;;;;;;;5.1;78.89844;94671.59;;;;
2020/10/21 04:42:17;;;;;;;5.8;4.699999;;;;;;;5.1;78.89844;94671.59;;;;
2020/10/21 04:43:18;;;;;;;5.8;4.699999;;;;;;;5.1;78.89844;94671.59;;;;
2020/10/21 04:44:21;;;;;;;5.8;4.699999;;;;;;;5.1;78.89844;94671.59;;;;
2020/10/21 04:45:25;;;;;;;5.8;4.699999;;;;;;;5.1;78.89844;94671.59;;;;
2020/10/21 04:46:25;;;;;;;6.6;4.749999;;;;;;;5.1;79.12207;94670.15;;;;
2020/10/21 04:47:39;;;;;;;6.6;4.749999;;;;;;;5.1;79.12207;94670.15;;;;
2020/10/21 04:48:50;;;;;;;6.6;4.749999;;;;;;;5.1;79.12207;94670.15;;;;
2020/10/21 04:50:06;;;;;;;6.6;4.749999;;;;;;;5.1;79.12207;94670.15;;;;
2020/10/21 04:51:19;;;;;;;6.6;4.749999;;;;;;;5.1;79.12207;94670.15;;;;
2020/10/21 04:52:37;;;;;;;6.6;4.749999;;;;;;;5.1;79.12207;94670.15;;;;
2020/10/21 04:54:02;;;;;;;6.6;4.749999;;;;;;;5.1;79.12207;94670.15;;;;
2020/10/21 04:55:21;;;;;;;6.6;4.749999;;;;;;;5.1;79.12207;94670.15;;;;
2020/10/21 04:56:24;;;;;;;7;4.65;;;;;;;5;79.20801;94685.05;;;;
2020/10/21 04:57:25;;;;;;;7;4.65;;;;;;;5;79.20801;94685.05;;;;
2020/10/21 04:58:33;;;;;;;7;4.65;;;;;;;5;79.20801;94685.05;;;;
2020/10/21 04:59:36;;;;;;;7;4.65;;;;;;;5;79.20801;94685.05;;;;
2020/10/21 05:00:37;;;;;;;7;4.65;;;;;;;5;79.20801;94685.05;;;;
2020/10/21 05:01:40;;;;;;;7;4.65;;;;;;;5;79.20801;94685.05;;;;
2020/10/21 05:02:58;;;;;;;7;4.65;;;;;;;5;79.20801;94685.05;;;;
2020/10/21 05:05:08;;;;;;;7;4.65;;;;;;;5;79.20801;94685.05;;;;
2020/10/21 05:06:19;;;;;;;7;4.65;;;;;;;5;79.20801;94685.05;;;;
2020/10/21 05:08:09;;;;;;;6.85;4.849999;;;;;;;4.99;79.41699;94671.77;;;;
2020/10/21 05:09:36;;;;;;;6.85;4.849999;;;;;;;4.99;79.41699;94671.77;;;;
2020/10/21 05:10:48;;;;;;;6.85;4.849999;;;;;;;4.99;79.41699;94671.77;;;;
2020/10/21 05:11:54;;;;;;;6.85;4.849999;;;;;;;4.99;79.41699;94671.77;;;;
2020/10/21 05:13:03;;;;;;;6.85;4.849999;;;;;;;4.99;79.41699;94671.77;;;;
2020/10/21 05:14:33;;;;;;;6.85;4.849999;;;;;;;4.99;79.41699;94671.77;;;;
2020/10/21 05:15:40;;;;;;;6.85;4.849999;;;;;;;4.99;79.41699;94671.77;;;;
2020/10/21 05:16:52;;;;;;;6.85;4.849999;;;;;;;4.99;79.41699;94671.77;;;;
2020/10/21 05:17:58;;;;;;;6.750001;4.900001;;;;;;;4.92;79.66699;94639.83;;;;
2020/10/21 05:19:05;;;;;;;6.750001;4.900001;;;;;;;4.92;79.66699;94639.83;;;;
2020/10/21 05:20:27;;;;;;;6.750001;4.900001;;;;;;;4.92;79.66699;94639.83;;;;
2020/10/21 05:21:32;;;;;;;6.750001;4.900001;;;;;;;4.92;79.66699;94639.83;;;;
2020/10/21 05:22:40;;;;;;;6.750001;4.900001;;;;;;;4.92;79.66699;94639.83;;;;
2020/10/21 05:23:47;;;;;;;6.750001;4.900001;;;;;;;4.92;79.66699;94639.83;;;;
2020/10/21 05:24:48;;;;;;;6.750001;4.900001;;;;;;;4.92;79.66699;94639.83;;;;
2020/10/21 05:25:50;;;;;;;6.750001;4.900001;;;;;;;4.92;79.66699;94639.83;;;;
2020/10/21 05:26:53;;;;;;;6.750001;4.900001;;;;;;;4.92;79.66699;94639.83;;;;
2020/10/21 05:27:54;;;;;;;6.750001;4.900001;;;;;;;4.92;79.66699;94639.83;;;;
2020/10/21 05:28:57;;;;;;;6.7;4.699999;;;;;;;4.95;79.92676;94647.82;;;;
2020/10/21 05:30:01;;;;;;;6.7;4.699999;;;;;;;4.95;79.92676;94647.82;;;;
2020/10/21 05:31:04;;;;;;;6.7;4.699999;;;;;;;4.95;79.92676;94647.82;;;;
2020/10/21 05:32:09;;;;;;;6.7;4.699999;;;;;;;4.95;79.92676;94647.82;;;;
2020/10/21 05:33:15;;;;;;;6.7;4.699999;;;;;;;4.95;79.92676;94647.82;;;;
2020/10/21 05:34:20;;;;;;;6.7;4.699999;;;;;;;4.95;79.92676;94647.82;;;;
2020/10/21 05:35:33;;;;;;;6.7;4.699999;;;;;;;4.95;79.92676;94647.82;;;;
2020/10/21 05:36:38;;;;;;;6.7;4.699999;;;;;;;4.95;79.92676;94647.82;;;;
2020/10/21 05:37:59;;;;;;;6.7;4.699999;;;;;;;4.95;79.92676;94647.82;;;;
2020/10/21 05:39:10;;;;;;;6.05;4.849999;;;;;;;4.9;80.06445;94641.49;;;;
2020/10/21 05:40:23;;;;;;;6.05;4.849999;;;;;;;4.9;80.06445;94641.49;;;;
2020/10/21 05:41:23;;;;;;;6.05;4.849999;;;;;;;4.9;80.06445;94641.49;;;;
2020/10/21 05:42:28;;;;;;;6.05;4.849999;;;;;;;4.9;80.06445;94641.49;;;;
2020/10/21 05:43:32;;;;;;;6.05;4.849999;;;;;;;4.9;80.06445;94641.49;;;;
2020/10/21 05:44:35;;;;;;;6.05;4.849999;;;;;;;4.9;80.06445;94641.49;;;;
2020/10/21 05:45:38;;;;;;;6.05;4.849999;;;;;;;4.9;80.06445;94641.49;;;;
2020/10/21 05:46:55;;;;;;;6.05;4.849999;;;;;;;4.9;80.06445;94641.49;;;;
2020/10/21 05:47:59;;;;;;;6.05;4.849999;;;;;;;4.9;80.06445;94641.49;;;;
2020/10/21 05:49:12;;;;;;;6.05;4.849999;;;;;;;4.9;80.06445;94641.49;;;;
2020/10/21 05:50:20;;;;;;;8.2;5.149999;;;;;;;4.98;80.1748;94635.88;;;;
2020/10/21 05:51:33;;;;;;;8.2;5.149999;;;;;;;4.98;80.1748;94635.88;;;;
2020/10/21 05:52:34;;;;;;;8.2;5.149999;;;;;;;4.98;80.1748;94635.88;;;;
2020/10/21 05:53:49;;;;;;;8.2;5.149999;;;;;;;4.98;80.1748;94635.88;;;;
2020/10/21 05:55:02;;;;;;;8.2;5.149999;;;;;;;4.98;80.1748;94635.88;;;;